Time,TemperatureF,DewpointF,PressureIn,WindDirection,WindDirectionDegrees,WindSpeedMPH,WindSpeedGustMPH,Humidity,HourlyPrecipIn,Conditions,Clouds,dailyrainin,SoftwareType,DateUTC
2013-03-15 00:00:00,33.6,11.9,0.00,NNW,345,0.0,0.0,40,0.00,,---,0.00,VWS V14.01,2013-03-15 04:00:00,
2013-03-15 00:01:00,33.8,12.1,0.00,NNW,345,0.0,0.0,40,0.00,,---,0.00,VWS V14.01,2013-03-15 04:01:00,
2013-03-15 00:02:00,33.8,12.1,0.00,NNW,345,0.0,0.0,40,0.00,,---,0.00,VWS V14.01,2013-03-15 04:02:00,
2013-03-15 00:07:00,33.8,12.1,0.00,NNW,332,0.0,0.0,40,0.00,,---,0.00,VWS V14.01,2013-03-15 04:07:00,
2013-03-15 00:08:00,33.8,12.1,0.00,NNW,327,0.0,0.0,40,0.00,,---,0.00,VWS V14.01,2013-03-15 04:08:00,
2013-03-15 00:14:00,33.8,12.1,0.00,SSE,153,0.0,2.2,40,0.00,,---,0.00,VWS V14.01,2013-03-15 04:14:00,
2013-03-15 00:19:00,33.8,12.1,0.00,SSE,149,0.0,0.0,40,0.00,,---,0.00,VWS V14.01,2013-03-15 04:19:00,
2013-03-15 00:25:00,33.8,12.1,0.00,SE,134,0.0,0.0,40,0.00,,---,0.00,VWS V14.01,2013-03-15 04:25:00,
2013-03-15 00:30:00,33.8,12.1,0.00,South,176,0.0,0.0,40,0.00,,---,0.00,VWS V14.01,2013-03-15 04:30:00,
2013-03-15 00:36:00,33.4,11.7,0.00,SSE,158,0.0,0.0,40,0.00,,---,0.00,VWS V14.01,2013-03-15 04:36:00,
2013-03-15 00:41:00,33.3,11.6,0.00,SSE,160,0.0,0.0,40,0.00,,---,0.00,VWS V14.01,2013-03-15 04:41:00,
2013-03-15 00:47:00,33.4,11.7,0.00,SSE,167,0.0,2.2,40,0.00,,---,0.00,VWS V14.01,2013-03-15 04:47:00,
2013-03-15 00:52:00,33.4,11.7,0.00,NNW,346,0.0,0.0,40,0.00,,---,0.00,VWS V14.01,2013-03-15 04:52:00,
2013-03-15 00:58:00,33.4,11.7,0.00,NNW,344,0.0,0.0,40,0.00,,---,0.00,VWS V14.01,2013-03-15 04:58:00,
2013-03-15 01:03:00,33.4,11.7,0.00,East,83,0.0,0.0,40,0.00,,---,0.00,VWS V14.01,2013-03-15 05:03:00,
2013-03-15 01:09:00,33.4,11.7,0.00,East,83,0.0,0.0,40,0.00,,---,0.00,VWS V14.01,2013-03-15 05:09:00,
2013-03-15 01:14:00,31.3,9.8,0.00,SE,124,2.7,5.4,40,0.00,,---,0.00,VWS V14.01,2013-03-15 05:14:00,
2013-03-15 01:20:00,31.3,9.8,0.00,North,0,0.0,0.0,40,0.00,,---,0.00,VWS V14.01,2013-03-15 05:20:00,
2013-03-15 01:26:00,30.4,9.0,0.00,North,0,0.0,0.0,40,0.00,,---,0.00,VWS V14.01,2013-03-15 05:26:00,
2013-03-15 01:31:00,30.0,9.2,0.00,North,0,0.0,0.0,41,0.00,,---,0.00,VWS V14.01,2013-03-15 05:31:00,
2013-03-15 01:36:00,29.5,8.7,0.00,North,0,0.0,0.0,41,0.00,,---,0.00,VWS V14.01,2013-03-15 05:36:00,
2013-03-15 01:42:00,28.9,8.2,0.00,North,0,0.0,0.0,41,0.00,,---,0.00,VWS V14.01,2013-03-15 05:42:00,
2013-03-15 01:48:00,28.6,7.9,0.00,North,0,0.0,0.0,41,0.00,,---,0.00,VWS V14.01,2013-03-15 05:48:00,
2013-03-15 01:54:00,28.4,7.7,0.00,North,0,0.0,0.0,41,0.00,,---,0.00,VWS V14.01,2013-03-15 05:54:00,
2013-03-15 01:59:00,28.4,7.7,0.00,North,0,0.0,0.0,41,0.00,,---,0.00,VWS V14.01,2013-03-15 05:59:00,
2013-03-15 02:05:00,28.6,7.9,0.00,North,0,0.0,0.0,41,0.00,,---,0.00,VWS V14.01,2013-03-15 06:05:00,
2013-03-15 02:10:00,28.6,7.9,0.00,North,0,0.0,0.0,41,0.00,,---,0.00,VWS V14.01,2013-03-15 06:10:00,
2013-03-15 02:16:00,28.9,8.2,0.00,North,0,0.0,0.0,41,0.00,,---,0.00,VWS V14.01,2013-03-15 06:16:00,
2013-03-15 02:22:00,28.9,8.2,0.00,North,0,0.0,0.0,41,0.00,,---,0.00,VWS V14.01,2013-03-15 06:22:00,
2013-03-15 02:27:00,28.9,8.2,0.00,North,0,0.0,0.0,41,0.00,,---,0.00,VWS V14.01,2013-03-15 06:27:00,
2013-03-15 02:33:00,28.6,7.9,0.00,North,0,0.0,0.0,41,0.00,,---,0.00,VWS V14.01,2013-03-15 06:33:00,
2013-03-15 02:39:00,28.6,7.9,0.00,North,0,0.0,0.0,41,0.00,,---,0.00,VWS V14.01,2013-03-15 06:39:00,
2013-03-15 02:45:00,28.6,7.9,0.00,North,357,0.0,0.0,41,0.00,,---,0.00,VWS V14.01,2013-03-15 06:45:00,
2013-03-15 02:50:00,28.6,7.9,0.00,North,357,0.0,0.0,41,0.00,,---,0.00,VWS V14.01,2013-03-15 06:50:00,
2013-03-15 02:56:00,29.5,8.7,0.00,North,357,0.0,0.0,41,0.00,,---,0.00,VWS V14.01,2013-03-15 06:56:00,
2013-03-15 03:02:00,29.3,8.5,0.00,North,357,0.0,0.0,41,0.00,,---,0.00,VWS V14.01,2013-03-15 07:02:00,
2013-03-15 03:07:00,28.9,8.2,0.00,North,357,0.0,0.0,41,0.00,,---,0.00,VWS V14.01,2013-03-15 07:07:00,
2013-03-15 03:13:00,28.8,8.0,0.00,North,357,0.0,0.0,41,0.00,,---,0.00,VWS V14.01,2013-03-15 07:13:00,
2013-03-15 03:18:00,28.8,8.0,0.00,North,357,0.0,0.0,41,0.00,,---,0.00,VWS V14.01,2013-03-15 07:18:00,
2013-03-15 03:24:00,28.6,7.9,0.00,North,357,0.0,0.0,41,0.00,,---,0.00,VWS V14.01,2013-03-15 07:24:00,
2013-03-15 03:29:00,28.2,7.6,0.00,North,357,0.0,0.0,41,0.00,,---,0.00,VWS V14.01,2013-03-15 07:29:00,
2013-03-15 03:34:00,28.2,7.6,0.00,North,357,0.0,0.0,41,0.00,,---,0.00,VWS V14.01,2013-03-15 07:34:00,
2013-03-15 03:40:00,28.2,7.6,0.00,North,357,0.0,0.0,41,0.00,,---,0.00,VWS V14.01,2013-03-15 07:40:00,
2013-03-15 03:46:00,28.2,7.6,0.00,North,357,0.0,0.0,41,0.00,,---,0.00,VWS V14.01,2013-03-15 07:46:00,
2013-03-15 03:52:00,28.2,7.6,0.00,North,357,0.0,0.0,41,0.00,,---,0.00,VWS V14.01,2013-03-15 07:52:00,
2013-03-15 03:58:00,28.2,7.6,0.00,North,357,0.0,0.0,41,0.00,,---,0.00,VWS V14.01,2013-03-15 07:58:00,
2013-03-15 04:03:00,28.2,7.6,0.00,North,357,0.0,0.0,41,0.00,,---,0.00,VWS V14.01,2013-03-15 08:03:00,
2013-03-15 04:09:00,28.2,7.6,0.00,North,357,0.0,0.0,41,0.00,,---,0.00,VWS V14.01,2013-03-15 08:09:00,
2013-03-15 04:15:00,28.2,7.6,0.00,North,357,0.0,0.0,41,0.00,,---,0.00,VWS V14.01,2013-03-15 08:15:00,
2013-03-15 04:20:00,28.2,7.6,0.00,North,357,0.0,0.0,41,0.00,,---,0.00,VWS V14.01,2013-03-15 08:20:00,
2013-03-15 04:27:00,28.2,7.6,0.00,North,357,0.0,0.0,41,0.00,,---,0.00,VWS V14.01,2013-03-15 08:27:00,
2013-03-15 04:32:00,28.2,7.6,0.00,North,357,0.0,0.0,41,0.00,,---,0.00,VWS V14.01,2013-03-15 08:32:00,
2013-03-15 04:38:00,28.2,7.6,0.00,North,357,0.0,0.0,41,0.00,,---,0.00,VWS V14.01,2013-03-15 08:38:00,
2013-03-15 04:44:00,28.2,7.6,0.00,North,357,0.0,0.0,41,0.00,,---,0.00,VWS V14.01,2013-03-15 08:44:00,
2013-03-15 04:49:00,28.2,7.6,0.00,North,357,0.0,0.0,41,0.00,,---,0.00,VWS V14.01,2013-03-15 08:49:00,
2013-03-15 04:55:00,28.2,7.6,0.00,North,357,0.0,0.0,41,0.00,,---,0.00,VWS V14.01,2013-03-15 08:55:00,
2013-03-15 05:00:00,28.2,7.6,0.00,North,357,0.0,0.0,41,0.00,,---,0.00,VWS V14.01,2013-03-15 09:00:00,
2013-03-15 05:06:00,28.2,7.6,0.00,North,357,0.0,0.0,41,0.00,,---,0.00,VWS V14.01,2013-03-15 09:06:00,
2013-03-15 05:11:00,28.2,7.6,0.00,North,357,0.0,0.0,41,0.00,,---,0.00,VWS V14.01,2013-03-15 09:11:00,
2013-03-15 05:17:00,28.2,7.6,0.00,North,357,0.0,0.0,41,0.00,,---,0.00,VWS V14.01,2013-03-15 09:17:00,
2013-03-15 05:22:00,28.2,7.6,0.00,North,357,0.0,0.0,41,0.00,,---,0.00,VWS V14.01,2013-03-15 09:22:00,
2013-03-15 05:28:00,28.2,7.6,0.00,North,357,0.0,0.0,41,0.00,,---,0.00,VWS V14.01,2013-03-15 09:28:00,
2013-03-15 05:33:00,28.2,7.6,0.00,North,357,0.0,0.0,41,0.00,,---,0.00,VWS V14.01,2013-03-15 09:33:00,
2013-03-15 05:39:00,28.2,7.6,0.00,North,357,0.0,0.0,41,0.00,,---,0.00,VWS V14.01,2013-03-15 09:39:00,
2013-03-15 05:45:00,28.2,7.6,0.00,North,357,0.0,0.0,41,0.00,,---,0.00,VWS V14.01,2013-03-15 09:45:00,
2013-03-15 05:50:00,28.2,7.6,0.00,North,357,0.0,0.0,41,0.00,,---,0.00,VWS V14.01,2013-03-15 09:50:00,
2013-03-15 05:57:00,28.2,7.6,0.00,North,357,0.0,0.0,41,0.00,,---,0.00,VWS V14.01,2013-03-15 09:57:00,
2013-03-15 06:03:00,28.2,7.6,0.00,North,357,0.0,0.0,41,0.00,,---,0.00,VWS V14.01,2013-03-15 10:03:00,
2013-03-15 06:08:00,28.2,7.6,0.00,North,357,0.0,0.0,41,0.00,,---,0.00,VWS V14.01,2013-03-15 10:08:00,
2013-03-15 06:14:00,28.2,7.6,0.00,North,357,0.0,0.0,41,0.00,,---,0.00,VWS V14.01,2013-03-15 10:14:00,
2013-03-15 06:20:00,28.2,7.6,0.00,North,357,0.0,0.0,41,0.00,,---,0.00,VWS V14.01,2013-03-15 10:20:00,
2013-03-15 06:25:00,28.2,7.6,0.00,North,357,0.0,0.0,41,0.00,,---,0.00,VWS V14.01,2013-03-15 10:25:00,
2013-03-15 06:31:00,28.2,7.6,0.00,North,357,0.0,0.0,41,0.00,,---,0.00,VWS V14.01,2013-03-15 10:31:00,
2013-03-15 06:36:00,28.2,7.6,0.00,North,357,0.0,0.0,41,0.00,,---,0.00,VWS V14.01,2013-03-15 10:36:00,
2013-03-15 06:42:00,28.2,7.6,0.00,North,357,0.0,0.0,41,0.00,,---,0.00,VWS V14.01,2013-03-15 10:42:00,
2013-03-15 06:47:00,28.2,7.6,0.00,North,357,0.0,0.0,41,0.00,,---,0.00,VWS V14.01,2013-03-15 10:47:00,
2013-03-15 06:53:00,28.2,7.6,0.00,North,357,0.0,0.0,41,0.00,,---,0.00,VWS V14.01,2013-03-15 10:53:00,
2013-03-15 06:58:00,28.2,7.6,0.00,North,357,0.0,0.0,41,0.00,,---,0.00,VWS V14.01,2013-03-15 10:58:00,
2013-03-15 07:03:00,28.2,7.6,0.00,North,357,0.0,0.0,41,0.00,,---,0.00,VWS V14.01,2013-03-15 11:03:00,
2013-03-15 07:09:00,28.2,7.6,0.00,North,357,0.0,0.0,41,0.00,,---,0.00,VWS V14.01,2013-03-15 11:09:00,
2013-03-15 07:14:00,28.2,7.6,0.00,North,357,0.0,0.0,41,0.00,,---,0.00,VWS V14.01,2013-03-15 11:14:00,
2013-03-15 07:20:00,28.2,7.6,0.00,North,357,0.0,0.0,41,0.00,,---,0.00,VWS V14.01,2013-03-15 11:20:00,
2013-03-15 07:25:00,28.2,7.6,0.00,North,357,0.0,0.0,41,0.00,,---,0.00,VWS V14.01,2013-03-15 11:25:00,
2013-03-15 07:31:00,28.2,7.6,0.00,North,357,0.0,0.0,41,0.00,,---,0.00,VWS V14.01,2013-03-15 11:31:00,
2013-03-15 07:36:00,28.2,7.6,0.00,North,357,0.0,0.0,41,0.00,,---,0.00,VWS V14.01,2013-03-15 11:36:00,
2013-03-15 07:42:00,28.2,7.6,0.00,North,357,0.0,0.0,41,0.00,,---,0.00,VWS V14.01,2013-03-15 11:42:00,
2013-03-15 07:47:00,28.2,7.6,0.00,North,357,0.0,0.0,41,0.00,,---,0.00,VWS V14.01,2013-03-15 11:47:00,
2013-03-15 07:52:00,28.2,7.6,0.00,North,357,0.0,0.0,41,0.00,,---,0.00,VWS V14.01,2013-03-15 11:52:00,
2013-03-15 07:57:00,28.2,7.6,0.00,North,357,0.0,0.0,41,0.00,,---,0.00,VWS V14.01,2013-03-15 11:57:00,
2013-03-15 08:02:00,28.2,7.6,0.00,North,357,0.0,0.0,41,0.00,,---,0.00,VWS V14.01,2013-03-15 12:02:00,
2013-03-15 08:07:00,28.2,7.6,0.00,North,357,0.0,0.0,41,0.00,,---,0.00,VWS V14.01,2013-03-15 12:07:00,
2013-03-15 08:12:00,28.2,7.6,0.00,North,357,0.0,0.0,41,0.00,,---,0.00,VWS V14.01,2013-03-15 12:12:00,
2013-03-15 08:17:00,28.2,7.6,0.00,North,357,0.0,0.0,41,0.00,,---,0.00,VWS V14.01,2013-03-15 12:17:00,
2013-03-15 08:22:00,28.2,7.6,0.00,North,357,0.0,0.0,41,0.00,,---,0.00,VWS V14.01,2013-03-15 12:22:00,
2013-03-15 08:27:00,28.2,7.6,0.00,North,357,0.0,0.0,41,0.00,,---,0.00,VWS V14.01,2013-03-15 12:27:00,
2013-03-15 08:32:00,28.2,7.6,0.00,North,357,0.0,0.0,41,0.00,,---,0.00,VWS V14.01,2013-03-15 12:32:00,
2013-03-15 08:37:00,28.2,7.6,0.00,North,357,0.0,0.0,41,0.00,,---,0.00,VWS V14.01,2013-03-15 12:37:00,
2013-03-15 08:43:00,30.0,9.2,0.00,North,357,0.0,0.0,41,0.00,,---,0.00,VWS V14.01,2013-03-15 12:43:00,
2013-03-15 08:48:00,30.0,9.2,0.00,North,357,0.0,0.0,41,0.00,,---,0.00,VWS V14.01,2013-03-15 12:48:00,
2013-03-15 08:54:00,30.0,9.2,0.00,North,357,0.0,0.0,41,0.00,,---,0.00,VWS V14.01,2013-03-15 12:54:00,
2013-03-15 08:59:00,30.0,9.2,0.00,North,0,0.0,0.0,41,0.00,,---,0.00,VWS V14.01,2013-03-15 12:59:00,
2013-03-15 09:05:00,30.0,9.2,0.00,North,0,0.0,0.0,41,0.00,,---,0.00,VWS V14.01,2013-03-15 13:05:00,
2013-03-15 09:10:00,33.8,12.1,0.00,East,94,0.0,0.0,40,0.00,,---,0.00,VWS V14.01,2013-03-15 13:10:00,
2013-03-15 09:16:00,33.8,12.1,0.00,ESE,122,0.0,0.0,40,0.00,,---,0.00,VWS V14.01,2013-03-15 13:16:00,
2013-03-15 09:21:00,33.8,12.1,0.00,SE,126,0.0,0.0,40,0.00,,---,0.00,VWS V14.01,2013-03-15 13:21:00,
2013-03-15 09:27:00,33.8,12.1,0.00,SSE,150,0.0,0.0,40,0.00,,---,0.00,VWS V14.01,2013-03-15 13:27:00,
2013-03-15 09:32:00,37.0,15.0,0.00,SSE,168,0.0,0.0,40,0.00,,---,0.00,VWS V14.01,2013-03-15 13:32:00,
2013-03-15 09:38:00,37.0,15.0,0.00,SSE,156,0.0,0.0,40,0.00,,---,0.00,VWS V14.01,2013-03-15 13:38:00,
2013-03-15 09:43:00,37.0,15.0,0.00,SSE,163,0.0,0.0,40,0.00,,---,0.00,VWS V14.01,2013-03-15 13:43:00,
2013-03-15 09:49:00,37.0,15.0,0.00,SE,136,0.0,0.0,40,0.00,,---,0.00,VWS V14.01,2013-03-15 13:49:00,
2013-03-15 09:54:00,37.0,15.0,0.00,SSE,150,0.0,0.0,40,0.00,,---,0.00,VWS V14.01,2013-03-15 13:54:00,
2013-03-15 10:00:00,41.0,17.4,0.00,SSE,153,0.0,0.0,38,0.00,,---,0.00,VWS V14.01,2013-03-15 14:00:00,
2013-03-15 10:05:00,41.0,17.4,0.00,SSE,153,0.0,0.0,38,0.00,,---,0.00,VWS V14.01,2013-03-15 14:05:00,
2013-03-15 10:11:00,44.6,20.6,0.00,South,176,0.0,0.0,38,0.00,,---,0.00,VWS V14.01,2013-03-15 14:11:00,
2013-03-15 10:16:00,46.6,21.7,0.00,East,97,2.7,2.7,37,0.00,,---,0.00,VWS V14.01,2013-03-15 14:16:00,
2013-03-15 10:22:00,47.1,22.2,0.00,SSE,163,0.0,2.2,37,0.00,,---,0.00,VWS V14.01,2013-03-15 14:22:00,
2013-03-15 10:27:00,46.6,21.7,0.00,South,178,0.0,2.2,37,0.00,,---,0.00,VWS V14.01,2013-03-15 14:27:00,
2013-03-15 10:32:00,46.0,21.9,0.00,South,171,3.1,3.1,38,0.00,,---,0.00,VWS V14.01,2013-03-15 14:32:00,
2013-03-15 10:38:00,46.2,22.0,0.00,SSE,155,0.0,0.0,38,0.00,,---,0.00,VWS V14.01,2013-03-15 14:38:00,
2013-03-15 10:43:00,46.8,21.9,0.00,SSE,160,0.0,2.2,37,0.00,,---,0.00,VWS V14.01,2013-03-15 14:43:00,
2013-03-15 10:49:00,47.7,22.7,0.00,SE,142,0.0,2.2,37,0.00,,---,0.00,VWS V14.01,2013-03-15 14:49:00,
2013-03-15 10:54:00,48.6,23.5,0.00,SSE,168,0.0,4.0,37,0.00,,---,0.00,VWS V14.01,2013-03-15 14:54:00,
2013-03-15 11:00:00,48.9,23.8,0.00,South,182,0.0,0.0,37,0.00,,---,0.00,VWS V14.01,2013-03-15 15:00:00,
2013-03-15 11:06:00,48.7,23.6,0.00,SSE,166,0.0,0.0,37,0.00,,---,0.00,VWS V14.01,2013-03-15 15:06:00,
2013-03-15 11:12:00,48.4,23.3,0.00,South,170,0.0,0.0,37,0.00,,---,0.00,VWS V14.01,2013-03-15 15:12:00,
2013-03-15 11:18:00,48.6,23.5,0.00,SE,145,0.0,0.0,37,0.00,,---,0.00,VWS V14.01,2013-03-15 15:18:00,
2013-03-15 11:23:00,48.9,23.8,0.00,SSW,196,0.0,0.0,37,0.00,,---,0.00,VWS V14.01,2013-03-15 15:23:00,
2013-03-15 11:29:00,49.5,24.3,0.00,SSE,162,0.0,0.0,37,0.00,,---,0.00,VWS V14.01,2013-03-15 15:29:00,
2013-03-15 11:34:00,50.2,24.3,0.00,SSE,164,0.0,0.0,36,0.00,,---,0.00,VWS V14.01,2013-03-15 15:34:00,
2013-03-15 11:39:00,50.2,24.3,0.00,SSE,148,0.0,0.0,36,0.00,,---,0.00,VWS V14.01,2013-03-15 15:39:00,
2013-03-15 11:45:00,50.9,24.9,0.00,SSE,164,0.0,0.0,36,0.00,,---,0.00,VWS V14.01,2013-03-15 15:45:00,
2013-03-15 11:51:00,51.3,25.2,0.00,SE,142,0.0,4.0,36,0.00,,---,0.00,VWS V14.01,2013-03-15 15:51:00,
2013-03-15 11:57:00,50.5,24.6,0.00,SSE,161,0.0,2.7,36,0.00,,---,0.00,VWS V14.01,2013-03-15 15:57:00,
2013-03-15 12:02:00,51.6,25.6,0.00,South,182,0.0,2.7,36,0.00,,---,0.00,VWS V14.01,2013-03-15 16:02:00,
2013-03-15 12:08:00,52.7,26.5,0.00,SSE,156,0.0,0.0,36,0.00,,---,0.00,VWS V14.01,2013-03-15 16:08:00,
2013-03-15 12:14:00,54.3,28.0,0.00,South,176,0.0,0.0,36,0.00,,---,0.00,VWS V14.01,2013-03-15 16:14:00,
2013-03-15 12:19:00,54.7,28.3,0.00,South,181,0.0,2.7,36,0.00,,---,0.00,VWS V14.01,2013-03-15 16:19:00,
2013-03-15 12:25:00,54.9,28.4,0.00,SSE,163,0.0,0.0,36,0.00,,---,0.00,VWS V14.01,2013-03-15 16:25:00,
2013-03-15 12:30:00,55.4,28.2,0.00,South,185,0.0,0.0,35,0.00,,---,0.00,VWS V14.01,2013-03-15 16:30:00,
2013-03-15 12:36:00,55.9,28.7,0.00,SSE,152,0.0,0.0,35,0.00,,---,0.00,VWS V14.01,2013-03-15 16:36:00,
2013-03-15 12:41:00,56.7,29.3,0.00,SW,233,0.0,2.2,35,0.00,,---,0.00,VWS V14.01,2013-03-15 16:41:00,
2013-03-15 12:46:00,56.8,29.5,0.00,South,179,0.0,0.0,35,0.00,,---,0.00,VWS V14.01,2013-03-15 16:46:00,
2013-03-15 12:52:00,57.9,30.5,0.00,SSE,162,0.0,0.0,35,0.00,,---,0.00,VWS V14.01,2013-03-15 16:52:00,
2013-03-15 12:57:00,58.3,30.8,0.00,SSW,192,3.6,3.6,35,0.00,,---,0.00,VWS V14.01,2013-03-15 16:57:00,
2013-03-15 13:03:00,56.8,29.5,0.00,South,183,0.0,2.7,35,0.00,,---,0.00,VWS V14.01,2013-03-15 17:03:00,
2013-03-15 13:08:00,56.1,28.9,0.00,SSW,203,0.0,0.0,35,0.00,,---,0.00,VWS V14.01,2013-03-15 17:08:00,
2013-03-15 13:15:00,54.9,28.4,0.00,SE,129,0.0,0.0,36,0.00,,---,0.00,VWS V14.01,2013-03-15 17:15:00,
2013-03-15 13:21:00,54.1,27.8,0.00,South,182,2.7,3.6,36,0.00,,---,0.00,VWS V14.01,2013-03-15 17:21:00,
2013-03-15 13:27:00,55.2,28.8,0.00,WNW,285,0.0,0.0,36,0.00,,---,0.00,VWS V14.01,2013-03-15 17:27:00,
2013-03-15 13:32:00,55.4,28.2,0.00,West,268,0.0,0.0,35,0.00,,---,0.00,VWS V14.01,2013-03-15 17:32:00,
2013-03-15 13:38:00,55.9,28.7,0.00,SE,145,0.0,0.0,35,0.00,,---,0.00,VWS V14.01,2013-03-15 17:38:00,
2013-03-15 13:43:00,56.7,29.3,0.00,WNW,284,2.2,2.7,35,0.00,,---,0.00,VWS V14.01,2013-03-15 17:43:00,
2013-03-15 13:49:00,56.8,29.5,0.00,SW,221,0.0,0.0,35,0.00,,---,0.00,VWS V14.01,2013-03-15 17:49:00,
2013-03-15 13:54:00,56.3,29.0,0.00,South,191,0.0,0.0,35,0.00,,---,0.00,VWS V14.01,2013-03-15 17:54:00,
2013-03-15 14:00:00,56.7,29.3,0.00,SSE,157,0.0,0.0,35,0.00,,---,0.00,VWS V14.01,2013-03-15 18:00:00,
2013-03-15 14:06:00,56.5,29.2,0.00,South,177,2.7,2.7,35,0.00,,---,0.00,VWS V14.01,2013-03-15 18:06:00,
2013-03-15 14:11:00,55.9,28.7,0.00,SW,216,0.0,2.2,35,0.00,,---,0.00,VWS V14.01,2013-03-15 18:11:00,
2013-03-15 14:16:00,55.2,28.8,0.00,South,185,0.0,0.0,36,0.00,,---,0.00,VWS V14.01,2013-03-15 18:16:00,
2013-03-15 14:21:00,54.9,28.4,0.00,SSW,193,0.0,0.0,36,0.00,,---,0.00,VWS V14.01,2013-03-15 18:21:00,
2013-03-15 14:26:00,54.9,28.4,0.00,South,170,0.0,0.0,36,0.00,,---,0.00,VWS V14.01,2013-03-15 18:26:00,
2013-03-15 14:32:00,54.5,28.1,0.00,WSW,239,0.0,0.0,36,0.00,,---,0.00,VWS V14.01,2013-03-15 18:32:00,
2013-03-15 14:38:00,54.3,28.0,0.00,SW,226,2.2,3.6,36,0.00,,---,0.00,VWS V14.01,2013-03-15 18:38:00,
2013-03-15 14:43:00,53.8,27.5,0.00,West,269,0.0,2.7,36,0.00,,---,0.00,VWS V14.01,2013-03-15 18:43:00,
2013-03-15 14:49:00,53.6,27.3,0.00,WSW,238,0.0,0.0,36,0.00,,---,0.00,VWS V14.01,2013-03-15 18:49:00,
2013-03-15 14:54:00,54.5,28.1,0.00,WSW,251,2.2,2.2,36,0.00,,---,0.00,VWS V14.01,2013-03-15 18:54:00,
2013-03-15 15:00:00,55.2,28.8,0.00,SW,233,0.0,2.7,36,0.00,,---,0.00,VWS V14.01,2013-03-15 19:00:00,
2013-03-15 15:06:00,55.8,28.5,0.00,SSW,209,2.2,2.7,35,0.00,,---,0.00,VWS V14.01,2013-03-15 19:06:00,
2013-03-15 15:12:00,55.0,28.6,0.00,WSW,239,0.0,2.2,36,0.00,,---,0.00,VWS V14.01,2013-03-15 19:12:00,
2013-03-15 15:17:00,55.4,28.2,0.00,West,267,0.0,0.0,35,0.00,,---,0.00,VWS V14.01,2013-03-15 19:17:00,
2013-03-15 15:22:00,55.9,28.7,0.00,WNW,282,2.2,2.7,35,0.00,,---,0.00,VWS V14.01,2013-03-15 19:22:00,
2013-03-15 15:27:00,55.8,28.5,0.00,West,259,0.0,2.2,35,0.00,,---,0.00,VWS V14.01,2013-03-15 19:27:00,
2013-03-15 15:32:00,55.4,28.2,0.00,West,276,0.0,2.2,35,0.00,,---,0.00,VWS V14.01,2013-03-15 19:32:00,
2013-03-15 15:37:00,55.0,28.6,0.00,WSW,238,0.0,2.2,36,0.00,,---,0.00,VWS V14.01,2013-03-15 19:37:00,
2013-03-15 15:43:00,54.5,28.1,0.00,WSW,237,0.0,0.0,36,0.00,,---,0.00,VWS V14.01,2013-03-15 19:43:00,
2013-03-15 15:49:00,54.1,27.8,0.00,South,179,0.0,0.0,36,0.00,,---,0.00,VWS V14.01,2013-03-15 19:49:00,
2013-03-15 15:54:00,54.1,27.8,0.00,WSW,238,0.0,0.0,36,0.00,,---,0.00,VWS V14.01,2013-03-15 19:54:00,
2013-03-15 16:00:00,54.7,28.3,0.00,SSW,202,0.0,0.0,36,0.00,,---,0.00,VWS V14.01,2013-03-15 20:00:00,
2013-03-15 16:05:00,55.2,28.8,0.00,WSW,239,0.0,0.0,36,0.00,,---,0.00,VWS V14.01,2013-03-15 20:05:00,
2013-03-15 16:11:00,55.4,28.2,0.00,SW,231,2.2,2.2,35,0.00,,---,0.00,VWS V14.01,2013-03-15 20:11:00,
2013-03-15 16:17:00,55.9,28.7,0.00,SW,229,0.0,0.0,35,0.00,,---,0.00,VWS V14.01,2013-03-15 20:17:00,
2013-03-15 16:22:00,56.1,28.9,0.00,SW,225,0.0,0.0,35,0.00,,---,0.00,VWS V14.01,2013-03-15 20:22:00,
2013-03-15 16:28:00,56.5,29.2,0.00,West,277,0.0,0.0,35,0.00,,---,0.00,VWS V14.01,2013-03-15 20:28:00,
2013-03-15 16:33:00,56.5,29.2,0.00,WSW,237,0.0,0.0,35,0.00,,---,0.00,VWS V14.01,2013-03-15 20:33:00,
2013-03-15 16:39:00,56.5,29.2,0.00,SW,235,0.0,2.2,35,0.00,,---,0.00,VWS V14.01,2013-03-15 20:39:00,
2013-03-15 16:45:00,56.3,29.0,0.00,WSW,252,2.7,2.7,35,0.00,,---,0.00,VWS V14.01,2013-03-15 20:45:00,
2013-03-15 16:51:00,56.1,28.9,0.00,West,259,0.0,0.0,35,0.00,,---,0.00,VWS V14.01,2013-03-15 20:51:00,
2013-03-15 16:57:00,56.1,28.9,0.00,WSW,250,2.2,2.7,35,0.00,,---,0.00,VWS V14.01,2013-03-15 20:57:00,
2013-03-15 17:02:00,55.9,28.7,0.00,WSW,248,0.0,0.0,35,0.00,,---,0.00,VWS V14.01,2013-03-15 21:02:00,
2013-03-15 17:08:00,55.9,28.7,0.00,SW,235,0.0,0.0,35,0.00,,---,0.00,VWS V14.01,2013-03-15 21:08:00,
2013-03-15 17:13:00,55.9,28.7,0.00,SW,233,0.0,0.0,35,0.00,,---,0.00,VWS V14.01,2013-03-15 21:13:00,
2013-03-15 17:18:00,55.9,28.7,0.00,West,266,2.7,2.7,35,0.00,,---,0.00,VWS V14.01,2013-03-15 21:18:00,
2013-03-15 17:23:00,55.8,28.5,0.00,WSW,257,0.0,2.7,35,0.00,,---,0.00,VWS V14.01,2013-03-15 21:23:00,
2013-03-15 17:29:00,55.6,28.4,0.00,West,262,0.0,2.2,35,0.00,,---,0.00,VWS V14.01,2013-03-15 21:29:00,
2013-03-15 17:34:00,55.6,28.4,0.00,SW,226,0.0,0.0,35,0.00,,---,0.00,VWS V14.01,2013-03-15 21:34:00,
2013-03-15 17:39:00,55.6,28.4,0.00,SW,232,0.0,0.0,35,0.00,,---,0.00,VWS V14.01,2013-03-15 21:39:00,
2013-03-15 17:45:00,55.6,28.4,0.00,SW,221,0.0,0.0,35,0.00,,---,0.00,VWS V14.01,2013-03-15 21:45:00,
2013-03-15 17:50:00,55.4,28.2,0.00,West,277,0.0,0.0,35,0.00,,---,0.00,VWS V14.01,2013-03-15 21:50:00,
2013-03-15 17:56:00,55.2,28.8,0.00,NW,308,0.0,0.0,36,0.00,,---,0.00,VWS V14.01,2013-03-15 21:56:00,
2013-03-15 18:01:00,55.0,28.6,0.00,WNW,297,0.0,0.0,36,0.00,,---,0.00,VWS V14.01,2013-03-15 22:01:00,
2013-03-15 18:07:00,54.7,28.3,0.00,SW,220,0.0,0.0,36,0.00,,---,0.00,VWS V14.01,2013-03-15 22:07:00,
2013-03-15 18:13:00,54.5,28.1,0.00,WNW,287,0.0,0.0,36,0.00,,---,0.00,VWS V14.01,2013-03-15 22:13:00,
2013-03-15 18:18:00,54.5,28.1,0.00,WNW,295,0.0,0.0,36,0.00,,---,0.00,VWS V14.01,2013-03-15 22:18:00,
2013-03-15 18:24:00,54.3,28.0,0.00,WSW,258,0.0,0.0,36,0.00,,---,0.00,VWS V14.01,2013-03-15 22:24:00,
2013-03-15 18:30:00,54.0,27.6,0.00,WSW,254,0.0,0.0,36,0.00,,---,0.00,VWS V14.01,2013-03-15 22:30:00,
2013-03-15 18:37:00,54.0,27.6,0.00,West,277,0.0,0.0,36,0.00,,---,0.00,VWS V14.01,2013-03-15 22:37:00,
2013-03-15 18:43:00,53.6,27.3,0.00,WNW,298,0.0,0.0,36,0.00,,---,0.00,VWS V14.01,2013-03-15 22:43:00,
2013-03-15 18:49:00,53.2,27.0,0.00,West,277,0.0,0.0,36,0.00,,---,0.00,VWS V14.01,2013-03-15 22:49:00,
2013-03-15 18:54:00,53.1,26.8,0.00,West,280,0.0,0.0,36,0.00,,---,0.00,VWS V14.01,2013-03-15 22:54:00,
2013-03-15 19:00:00,52.5,26.4,0.00,West,278,0.0,0.0,36,0.00,,---,0.00,VWS V14.01,2013-03-15 23:00:00,
2013-03-15 19:06:00,52.0,25.9,0.00,West,277,0.0,0.0,36,0.00,,---,0.00,VWS V14.01,2013-03-15 23:06:00,
2013-03-15 19:12:00,51.8,25.7,0.00,West,279,0.0,0.0,36,0.00,,---,0.00,VWS V14.01,2013-03-15 23:12:00,
2013-03-15 19:17:00,51.6,25.6,0.00,West,272,0.0,0.0,36,0.00,,---,0.00,VWS V14.01,2013-03-15 23:17:00,
2013-03-15 19:22:00,51.1,25.1,0.00,West,272,0.0,0.0,36,0.00,,---,0.00,VWS V14.01,2013-03-15 23:22:00,
2013-03-15 19:28:00,51.1,25.1,0.00,West,271,0.0,0.0,36,0.00,,---,0.00,VWS V14.01,2013-03-15 23:28:00,
2013-03-15 19:34:00,50.4,24.4,0.00,West,272,0.0,0.0,36,0.00,,---,0.00,VWS V14.01,2013-03-15 23:34:00,
2013-03-15 19:39:00,50.4,24.4,0.00,West,271,0.0,0.0,36,0.00,,---,0.00,VWS V14.01,2013-03-15 23:39:00,
2013-03-15 19:44:00,50.4,24.4,0.00,West,271,0.0,0.0,36,0.00,,---,0.00,VWS V14.01,2013-03-15 23:44:00,
2013-03-15 19:49:00,48.7,23.6,0.00,West,271,0.0,0.0,37,0.00,,---,0.00,VWS V14.01,2013-03-15 23:49:00,
2013-03-15 19:55:00,48.6,23.5,0.00,West,272,0.0,0.0,37,0.00,,---,0.00,VWS V14.01,2013-03-15 23:55:00,
2013-03-15 20:00:00,47.5,22.5,0.00,West,272,0.0,0.0,37,0.00,,---,0.00,VWS V14.01,2013-03-16 00:00:00,
2013-03-15 20:06:00,47.1,22.2,0.00,West,271,0.0,0.0,37,0.00,,---,0.00,VWS V14.01,2013-03-16 00:06:00,
2013-03-15 20:11:00,46.9,22.0,0.00,West,271,0.0,0.0,37,0.00,,---,0.00,VWS V14.01,2013-03-16 00:11:00,
2013-03-15 20:17:00,46.6,21.7,0.00,West,271,0.0,0.0,37,0.00,,---,0.00,VWS V14.01,2013-03-16 00:17:00,
2013-03-15 20:22:00,46.6,21.7,0.00,West,271,0.0,0.0,37,0.00,,---,0.00,VWS V14.01,2013-03-16 00:22:00,
2013-03-15 20:28:00,46.6,21.7,0.00,West,271,0.0,0.0,37,0.00,,---,0.00,VWS V14.01,2013-03-16 00:28:00,
2013-03-15 20:34:00,46.6,21.7,0.00,West,271,0.0,0.0,37,0.00,,---,0.00,VWS V14.01,2013-03-16 00:34:00,
2013-03-15 20:39:00,46.6,21.7,0.00,West,272,0.0,0.0,37,0.00,,---,0.00,VWS V14.01,2013-03-16 00:39:00,
2013-03-15 20:45:00,46.6,21.7,0.00,West,271,0.0,0.0,37,0.00,,---,0.00,VWS V14.01,2013-03-16 00:45:00,
2013-03-15 20:50:00,43.5,19.6,0.00,West,271,0.0,0.0,38,0.00,,---,0.00,VWS V14.01,2013-03-16 00:50:00,
2013-03-15 20:56:00,43.5,19.6,0.00,West,272,0.0,0.0,38,0.00,,---,0.00,VWS V14.01,2013-03-16 00:56:00,
2013-03-15 21:02:00,43.5,19.6,0.00,West,271,0.0,0.0,38,0.00,,---,0.00,VWS V14.01,2013-03-16 01:02:00,
2013-03-15 21:07:00,43.5,19.6,0.00,West,272,0.0,0.0,38,0.00,,---,0.00,VWS V14.01,2013-03-16 01:07:00,
2013-03-15 21:13:00,43.5,19.6,0.00,West,271,0.0,0.0,38,0.00,,---,0.00,VWS V14.01,2013-03-16 01:13:00,
2013-03-15 21:18:00,43.5,19.6,0.00,West,272,0.0,0.0,38,0.00,,---,0.00,VWS V14.01,2013-03-16 01:18:00,
2013-03-15 21:24:00,43.5,19.6,0.00,West,272,0.0,0.0,38,0.00,,---,0.00,VWS V14.01,2013-03-16 01:24:00,
2013-03-15 21:29:00,43.5,19.6,0.00,West,272,0.0,0.0,38,0.00,,---,0.00,VWS V14.01,2013-03-16 01:29:00,
2013-03-15 21:34:00,43.5,19.6,0.00,West,271,0.0,0.0,38,0.00,,---,0.00,VWS V14.01,2013-03-16 01:34:00,
2013-03-15 21:39:00,43.5,19.6,0.00,West,271,0.0,0.0,38,0.00,,---,0.00,VWS V14.01,2013-03-16 01:39:00,
2013-03-15 21:44:00,43.5,19.6,0.00,West,271,0.0,0.0,38,0.00,,---,0.00,VWS V14.01,2013-03-16 01:44:00,
2013-03-15 21:49:00,43.5,19.6,0.00,West,271,0.0,0.0,38,0.00,,---,0.00,VWS V14.01,2013-03-16 01:49:00,
2013-03-15 21:55:00,43.5,19.6,0.00,West,272,0.0,0.0,38,0.00,,---,0.00,VWS V14.01,2013-03-16 01:55:00,
2013-03-15 22:02:00,43.5,19.6,0.00,West,271,0.0,0.0,38,0.00,,---,0.00,VWS V14.01,2013-03-16 02:02:00,
2013-03-15 22:08:00,43.5,19.6,0.00,West,272,0.0,0.0,38,0.00,,---,0.00,VWS V14.01,2013-03-16 02:08:00,
2013-03-15 22:14:00,43.5,19.6,0.00,West,271,0.0,0.0,38,0.00,,---,0.00,VWS V14.01,2013-03-16 02:14:00,
2013-03-15 22:19:00,43.5,19.6,0.00,West,271,0.0,0.0,38,0.00,,---,0.00,VWS V14.01,2013-03-16 02:19:00,
2013-03-15 22:25:00,43.5,19.6,0.00,West,272,0.0,0.0,38,0.00,,---,0.00,VWS V14.01,2013-03-16 02:25:00,
2013-03-15 22:30:00,43.5,19.6,0.00,West,272,0.0,0.0,38,0.00,,---,0.00,VWS V14.01,2013-03-16 02:30:00,
2013-03-15 22:36:00,43.5,19.6,0.00,West,272,0.0,0.0,38,0.00,,---,0.00,VWS V14.01,2013-03-16 02:36:00,
2013-03-15 22:41:00,43.5,19.6,0.00,West,271,0.0,0.0,38,0.00,,---,0.00,VWS V14.01,2013-03-16 02:41:00,
2013-03-15 22:46:00,43.5,19.6,0.00,West,271,0.0,0.0,38,0.00,,---,0.00,VWS V14.01,2013-03-16 02:46:00,
2013-03-15 22:51:00,43.5,19.6,0.00,West,272,0.0,0.0,38,0.00,,---,0.00,VWS V14.01,2013-03-16 02:51:00,
2013-03-15 22:56:00,43.5,19.6,0.00,West,272,0.0,0.0,38,0.00,,---,0.00,VWS V14.01,2013-03-16 02:56:00,
2013-03-15 23:01:00,43.5,19.6,0.00,West,271,0.0,0.0,38,0.00,,---,0.00,VWS V14.01,2013-03-16 03:01:00,
2013-03-15 23:07:00,43.5,19.6,0.00,West,272,0.0,0.0,38,0.00,,---,0.00,VWS V14.01,2013-03-16 03:07:00,
2013-03-15 23:12:00,43.5,19.6,0.00,West,271,0.0,0.0,38,0.00,,---,0.00,VWS V14.01,2013-03-16 03:12:00,
2013-03-15 23:18:00,43.5,19.6,0.00,West,271,0.0,0.0,38,0.00,,---,0.00,VWS V14.01,2013-03-16 03:18:00,
2013-03-15 23:23:00,43.5,19.6,0.00,West,272,0.0,0.0,38,0.00,,---,0.00,VWS V14.01,2013-03-16 03:23:00,
2013-03-15 23:29:00,43.5,19.6,0.00,West,272,0.0,0.0,38,0.00,,---,0.00,VWS V14.01,2013-03-16 03:29:00,
2013-03-15 23:34:00,43.5,19.6,0.00,West,271,0.0,0.0,38,0.00,,---,0.00,VWS V14.01,2013-03-16 03:34:00,
2013-03-15 23:39:00,43.5,19.6,0.00,West,272,0.0,0.0,38,0.00,,---,0.00,VWS V14.01,2013-03-16 03:39:00,
2013-03-15 23:45:00,43.5,19.6,0.00,West,271,0.0,0.0,38,0.00,,---,0.00,VWS V14.01,2013-03-16 03:45:00,
2013-03-15 23:50:00,43.5,19.6,0.00,West,272,0.0,0.0,38,0.00,,---,0.00,VWS V14.01,2013-03-16 03:50:00,
2013-03-15 23:56:00,43.5,19.6,0.00,West,272,0.0,0.0,38,0.00,,---,0.00,VWS V14.01,2013-03-16 03:56:00,